Time;durP1;ratioP1;P1;durP2;ratioP2;P2;SDS_P1;SDS_P2;PMS_P1;PMS_P2;Temp;Humidity;BMP_temperature;BMP_pressure;BME280_temperature;BME280_humidity;BME280_pressure;Samples;Min_cycle;Max_cycle;Signal;HPM_P1;HPM_P2
2024/04/20 00:00:51;;;;;;;2.17;1.10;;;;;;;-0.28;55.34;100866.84;5437711;26;20615;-68
2024/04/20 00:03:20;;;;;;;1.30;1.20;;;;;;;-0.32;55.29;100865.88;5437715;26;21066;-72
2024/04/20 00:05:48;;;;;;;1.83;1.20;;;;;;;-0.34;55.51;100857.28;5435565;26;20596;-72
2024/04/20 00:08:19;;;;;;;1.43;1.10;;;;;;;-0.38;55.61;100861.44;5440853;26;20575;-72
2024/04/20 00:10:48;;;;;;;3.37;1.30;;;;;;;-0.37;55.66;100864.91;5427494;26;20533;-73
2024/04/20 00:13:16;;;;;;;1.23;1.13;;;;;;;-0.38;55.82;100868.31;5433993;26;21115;-72
2024/04/20 00:15:45;;;;;;;1.33;1.13;;;;;;;-0.38;55.96;100876.00;5431098;26;20465;-72
2024/04/20 00:18:13;;;;;;;2.33;1.20;;;;;;;-0.38;55.71;100866.59;5430880;26;20465;-72
2024/04/20 00:20:42;;;;;;;2.23;1.20;;;;;;;-0.39;55.92;100870.00;5436532;26;20605;-72
2024/04/20 00:23:12;;;;;;;3.97;1.47;;;;;;;-0.40;56.14;100868.28;5437925;26;20592;-70
2024/04/20 00:25:43;;;;;;;1.30;1.10;;;;;;;-0.40;55.95;100870.00;5438123;26;20465;-70
2024/04/20 00:28:12;;;;;;;1.50;1.10;;;;;;;-0.41;56.01;100871.66;5433018;26;21126;-70
2024/04/20 00:30:40;;;;;;;1.47;1.00;;;;;;;-0.41;56.16;100871.66;5436613;26;20509;-70
2024/04/20 00:33:09;;;;;;;2.47;1.23;;;;;;;-0.41;56.34;100866.53;5430120;26;20604;-70
2024/04/20 00:35:41;;;;;;;2.17;1.30;;;;;;;-0.40;56.24;100875.13;5424373;26;20571;-70
2024/04/20 00:38:10;;;;;;;1.40;1.30;;;;;;;-0.41;56.18;100869.09;5433680;26;21143;-70
2024/04/20 00:40:38;;;;;;;1.70;1.03;;;;;;;-0.41;56.26;100871.66;5437761;26;20541;-70
2024/04/20 00:43:18;;;;;;;1.83;1.73;;;;;;;-0.41;56.21;100876.81;5430404;26;20706;-69
2024/04/20 00:45:47;;;;;;;2.77;1.37;;;;;;;-0.42;56.30;100869.06;5441938;26;20465;-70
2024/04/20 00:48:17;;;;;;;1.83;1.23;;;;;;;-0.45;56.31;100869.88;5437893;26;20498;-70
2024/04/20 00:50:46;;;;;;;2.20;1.37;;;;;;;-0.42;56.51;100880.22;5437776;26;20465;-70
2024/04/20 00:53:17;;;;;;;2.20;1.20;;;;;;;-0.43;56.55;100873.34;5433220;26;20536;-70
2024/04/20 00:55:46;;;;;;;1.63;1.13;;;;;;;-0.45;56.53;100872.44;5438455;26;20541;-70
2024/04/20 00:58:19;;;;;;;2.17;1.47;;;;;;;-0.45;56.52;100864.72;5424803;26;20548;-70
2024/04/20 01:00:48;;;;;;;2.57;1.60;;;;;;;-0.45;56.77;100869.00;5433260;26;20508;-70
2024/04/20 01:03:17;;;;;;;1.50;1.40;;;;;;;-0.47;56.63;100866.38;5437505;26;21122;-70
2024/04/20 01:05:46;;;;;;;2.77;1.40;;;;;;;-0.46;56.66;100867.25;5436097;26;20598;-70
2024/04/20 01:08:15;;;;;;;1.90;1.30;;;;;;;-0.47;56.88;100870.66;5438181;26;20464;-70
2024/04/20 01:10:43;;;;;;;2.03;1.80;;;;;;;-0.47;56.89;100870.66;5441610;26;21005;-70
2024/04/20 01:13:13;;;;;;;2.20;1.30;;;;;;;-0.50;56.88;100865.44;5439088;26;20469;-70
2024/04/20 01:15:44;;;;;;;1.27;1.17;;;;;;;-0.50;56.95;100868.88;5440792;26;20579;-69
2024/04/20 01:18:13;;;;;;;2.20;1.20;;;;;;;-0.51;56.84;100869.72;5425338;26;20479;-70
2024/04/20 01:20:41;;;;;;;2.90;1.20;;;;;;;-0.52;56.67;100870.53;5435588;26;20533;-70
2024/04/20 01:23:10;;;;;;;3.40;1.30;;;;;;;-0.52;56.69;100870.53;5440027;26;20480;-70
2024/04/20 01:25:48;;;;;;;2.60;1.27;;;;;;;-0.54;56.83;100874.81;5430337;26;20538;-70
2024/04/20 01:28:17;;;;;;;2.67;1.40;;;;;;;-0.55;57.04;100873.03;5441570;26;20469;-70
2024/04/20 01:30:46;;;;;;;2.10;1.30;;;;;;;-0.54;57.27;100874.81;5440188;26;20608;-70
2024/04/20 01:33:14;;;;;;;1.60;1.20;;;;;;;-0.56;57.30;100871.31;5438883;26;20608;-71
2024/04/20 01:35:43;;;;;;;1.63;1.23;;;;;;;-0.57;57.33;100880.72;5439536;26;20476;-71
2024/04/20 01:38:12;;;;;;;1.47;1.33;;;;;;;-0.60;57.04;100878.09;5433438;26;20515;-71
2024/04/20 01:40:40;;;;;;;2.07;1.40;;;;;;;-0.59;57.14;100873.81;5422947;26;20671;-72
2024/04/20 01:43:12;;;;;;;2.20;1.30;;;;;;;-0.61;57.42;100878.91;5441033;26;20465;-71
2024/04/20 01:45:40;;;;;;;1.50;0.87;;;;;;;-0.60;57.09;100874.66;5441918;26;20536;-71
2024/04/20 01:48:10;;;;;;;1.80;1.20;;;;;;;-0.61;57.41;100880.59;5442012;26;20563;-71
2024/04/20 01:50:38;;;;;;;2.80;1.63;;;;;;;-0.63;57.15;100880.59;5440902;26;21068;-71
2024/04/20 01:53:07;;;;;;;2.20;1.47;;;;;;;-0.62;57.39;100882.31;5441543;26;20525;-71
2024/04/20 01:55:35;;;;;;;1.60;1.40;;;;;;;-0.60;57.55;100884.94;5428860;26;21017;-71
2024/04/20 01:58:04;;;;;;;2.57;1.33;;;;;;;-0.61;57.25;100880.59;5441675;26;20597;-71
2024/04/20 02:00:35;;;;;;;3.53;1.70;;;;;;;-0.60;57.41;100879.78;5369963;26;20490;-71
2024/04/20 02:03:04;;;;;;;2.00;1.30;;;;;;;-0.63;57.41;100870.31;5433995;26;20461;-71
2024/04/20 02:05:33;;;;;;;3.43;1.60;;;;;;;-0.60;57.64;100875.53;5440044;26;20477;-71
2024/04/20 02:08:02;;;;;;;1.63;1.20;;;;;;;-0.60;57.61;100874.66;5436134;26;21050;-71
2024/04/20 02:10:30;;;;;;;2.80;1.40;;;;;;;-0.60;57.62;100875.53;5438665;26;20471;-71
2024/04/20 02:12:59;;;;;;;3.30;1.83;;;;;;;-0.60;57.67;100874.66;5437707;26;20522;-70
2024/04/20 02:15:27;;;;;;;1.97;1.13;;;;;;;-0.62;57.66;100881.44;5438874;26;20461;-71
2024/04/20 02:17:59;;;;;;;3.67;1.47;;;;;;;-0.58;57.83;100878.09;5438092;26;20485;-71
2024/04/20 02:20:27;;;;;;;3.57;1.43;;;;;;;-0.58;58.01;100873.84;5441102;26;20524;-70
2024/04/20 02:22:56;;;;;;;1.27;1.10;;;;;;;-0.58;57.85;100878.97;5441372;26;20526;-71
2024/04/20 02:25:24;;;;;;;2.20;1.23;;;;;;;-0.59;57.83;100874.69;5441988;26;20479;-71
2024/04/20 02:27:53;;;;;;;2.70;1.57;;;;;;;-0.56;57.95;100876.47;5432721;26;21104;-71
2024/04/20 02:30:22;;;;;;;4.10;1.60;;;;;;;-0.56;58.28;100873.88;5441659;26;22066;-71
2024/04/20 02:32:50;;;;;;;1.80;1.47;;;;;;;-0.55;58.13;100880.75;5440535;26;20517;-73
2024/04/20 02:35:21;;;;;;;1.70;1.43;;;;;;;-0.55;58.36;100883.31;5440104;26;20598;-73
2024/04/20 02:37:50;;;;;;;1.93;1.30;;;;;;;-0.55;58.26;100891.91;5428503;26;21038;-73
2024/04/20 02:40:18;;;;;;;3.10;1.70;;;;;;;-0.54;58.11;100882.50;5441442;26;20553;-73
2024/04/20 02:42:47;;;;;;;4.07;1.73;;;;;;;-0.52;58.22;100887.66;5436647;26;21156;-70
2024/04/20 02:45:17;;;;;;;3.23;1.50;;;;;;;-0.53;58.41;100886.81;5441045;26;20528;-70
2024/04/20 02:47:46;;;;;;;2.67;1.57;;;;;;;-0.52;58.43;100885.97;5430562;26;20461;-70
2024/04/20 02:50:15;;;;;;;2.77;1.43;;;;;;;-0.50;58.60;100889.44;5437273;26;20517;-70
2024/04/20 02:52:46;;;;;;;3.13;1.30;;;;;;;-0.47;58.67;100891.22;5434483;26;21009;-70
2024/04/20 02:55:14;;;;;;;2.13;1.40;;;;;;;-0.47;58.57;100889.53;5437685;26;20517;-70
2024/04/20 02:57:43;;;;;;;2.10;1.57;;;;;;;-0.45;58.24;100893.00;5436992;26;20938;-70
2024/04/20 03:00:12;;;;;;;3.37;1.80;;;;;;;-0.44;58.50;100896.44;5438762;26;20537;-70
2024/04/20 03:02:41;;;;;;;2.23;1.70;;;;;;;-0.43;58.65;100895.59;5430264;26;20454;-70
2024/04/20 03:05:10;;;;;;;2.60;1.77;;;;;;;-0.43;58.50;100888.78;5434910;26;20523;-70
2024/04/20 03:07:38;;;;;;;4.17;1.70;;;;;;;-0.41;58.70;100891.38;5438650;26;20453;-70
2024/04/20 03:10:10;;;;;;;2.57;1.10;;;;;;;-0.43;58.85;100893.03;5427036;26;20465;-70
2024/04/20 03:12:38;;;;;;;1.40;1.30;;;;;;;-0.50;58.74;100881.75;5440876;26;20465;-70
2024/04/20 03:15:07;;;;;;;2.03;1.60;;;;;;;-0.42;58.83;100893.06;5438008;26;20518;-70
2024/04/20 03:17:36;;;;;;;2.70;1.20;;;;;;;-0.42;58.66;100895.66;5442713;26;20521;-70
2024/04/20 03:20:06;;;;;;;1.83;1.20;;;;;;;-0.43;58.60;100888.78;5435237;26;20540;-70
2024/04/20 03:22:34;;;;;;;4.77;1.50;;;;;;;-0.39;58.70;100903.44;5441347;26;20634;-70
2024/04/20 03:25:03;;;;;;;3.27;1.40;;;;;;;-0.39;58.91;100898.28;5436027;26;20913;-70
2024/04/20 03:27:34;;;;;;;1.83;1.30;;;;;;;-0.38;58.70;100901.72;5436627;26;20580;-70
2024/04/20 03:30:03;;;;;;;1.57;1.30;;;;;;;-0.38;58.77;100902.59;5425269;26;20526;-70
2024/04/20 03:32:31;;;;;;;1.70;1.40;;;;;;;-0.38;58.65;100900.00;5440071;26;20526;-70
2024/04/20 03:35:00;;;;;;;1.40;1.27;;;;;;;-0.38;58.69;100901.72;5438600;26;20599;-70
2024/04/20 03:37:28;;;;;;;1.77;1.50;;;;;;;-0.38;59.14;100900.00;5433480;26;20518;-69
2024/04/20 03:39:57;;;;;;;2.07;1.40;;;;;;;-0.38;59.11;100897.44;5439732;26;20605;-70
2024/04/20 03:42:26;;;;;;;1.40;1.27;;;;;;;-0.38;58.94;100907.72;5442949;26;20485;-70
2024/04/20 03:44:57;;;;;;;2.07;1.10;;;;;;;-0.37;59.00;100909.50;5434400;26;21128;-70
2024/04/20 03:47:26;;;;;;;3.40;1.57;;;;;;;-0.37;59.00;100912.06;5438056;26;20526;-70
2024/04/20 03:49:54;;;;;;;1.57;1.20;;;;;;;-0.37;59.29;100912.06;5425319;26;20478;-70
2024/04/20 03:52:23;;;;;;;1.37;1.23;;;;;;;-0.38;59.25;100910.28;5426469;26;20482;-70
2024/04/20 03:54:53;;;;;;;2.77;1.50;;;;;;;-0.36;59.45;100910.34;5440106;26;20549;-70
2024/04/20 03:57:21;;;;;;;2.37;1.03;;;;;;;-0.36;59.28;100911.22;5432917;26;20600;-69
2024/04/20 03:59:50;;;;;;;2.40;1.80;;;;;;;-0.36;59.52;100921.50;5438520;26;20554;-70
2024/04/20 04:02:25;;;;;;;1.77;1.50;;;;;;;-0.36;59.82;100920.63;5437532;26;20465;-70
2024/04/20 04:04:54;;;;;;;2.37;1.47;;;;;;;-0.36;59.74;100925.78;5435323;26;21124;-69
2024/04/20 04:07:23;;;;;;;1.30;1.20;;;;;;;-0.37;59.84;100924.91;5424068;26;20579;-69
2024/04/20 04:09:51;;;;;;;2.07;1.30;;;;;;;-0.35;60.12;100927.50;5433651;26;20650;-69
2024/04/20 04:12:20;;;;;;;2.90;1.70;;;;;;;-0.34;60.02;100930.13;5423724;26;20545;-69
2024/04/20 04:14:49;;;;;;;2.73;1.40;;;;;;;-0.37;60.23;100924.03;5435283;26;20461;-69
2024/04/20 04:17:18;;;;;;;1.80;1.37;;;;;;;-0.35;59.86;100933.53;5433026;26;20477;-69
2024/04/20 04:19:49;;;;;;;4.27;1.27;;;;;;;-0.34;60.29;100934.41;5431278;26;20525;-69
2024/04/20 04:22:17;;;;;;;2.43;1.50;;;;;;;-0.33;60.30;100933.56;5438935;26;20608;-69
2024/04/20 04:24:46;;;;;;;3.47;1.40;;;;;;;-0.34;60.30;100940.41;5434610;26;21004;-69
2024/04/20 04:27:16;;;;;;;1.07;0.90;;;;;;;-0.33;60.09;100938.69;5428050;26;20548;-69
2024/04/20 04:29:45;;;;;;;3.07;1.50;;;;;;;-0.31;60.27;100943.91;5443565;26;21079;-69
2024/04/20 04:32:14;;;;;;;3.23;1.30;;;;;;;-0.31;60.42;100946.47;5430418;26;20558;-69
2024/04/20 04:34:42;;;;;;;2.60;1.70;;;;;;;-0.40;60.38;100932.56;5433497;26;20532;-69
2024/04/20 04:37:13;;;;;;;1.63;1.50;;;;;;;-0.30;60.30;100958.47;5435735;26;20520;-69
2024/04/20 04:39:42;;;;;;;2.30;1.47;;;;;;;-0.31;60.78;100946.47;5431472;26;20537;-69
2024/04/20 04:42:10;;;;;;;2.70;1.57;;;;;;;-0.30;60.68;100956.78;5434341;26;20570;-69
2024/04/20 04:44:39;;;;;;;5.57;1.60;;;;;;;-0.29;60.64;100962.78;5436150;26;20951;-69
2024/04/20 04:47:08;;;;;;;2.90;1.30;;;;;;;-0.29;60.60;100952.50;5431455;26;20521;-69
2024/04/20 04:49:37;;;;;;;1.67;1.27;;;;;;;-0.28;60.51;100956.81;5431158;26;20469;-69
2024/04/20 04:52:06;;;;;;;1.03;0.93;;;;;;;-0.28;60.63;100959.41;5440903;26;20465;-69
2024/04/20 04:54:37;;;;;;;2.03;1.40;;;;;;;-0.34;60.57;100945.53;5420928;26;20552;-67
2024/04/20 04:57:06;;;;;;;4.60;1.37;;;;;;;-0.30;60.50;100956.78;5437998;26;20477;-67
2024/04/20 04:59:35;;;;;;;3.37;1.53;;;;;;;-0.37;60.51;100950.63;5431114;26;20541;-67
2024/04/20 05:02:03;;;;;;;1.47;1.20;;;;;;;-0.27;60.75;100966.25;5435169;26;20462;-67
2024/04/20 05:04:32;;;;;;;1.90;1.30;;;;;;;-0.29;60.73;100963.63;5434257;26;20529;-67
2024/04/20 05:07:02;;;;;;;2.17;1.80;;;;;;;-0.28;60.77;100961.97;5441346;26;20460;-67
2024/04/20 05:09:32;;;;;;;1.67;1.40;;;;;;;-0.28;60.94;100959.41;5424192;26;20614;-67
2024/04/20 05:12:03;;;;;;;2.43;1.03;;;;;;;-0.25;60.92;100975.75;5437342;26;20508;-65
2024/04/20 05:14:31;;;;;;;1.40;1.10;;;;;;;-0.25;60.90;100968.03;5415923;26;20547;-65
2024/04/20 05:17:00;;;;;;;1.60;1.27;;;;;;;-0.25;60.75;100969.75;5434260;26;20532;-65
2024/04/20 05:19:29;;;;;;;1.90;1.30;;;;;;;-0.25;60.96;100980.91;5436753;26;20611;-65
2024/04/20 05:21:57;;;;;;;4.67;1.53;;;;;;;-0.24;60.87;100974.06;5432258;26;20542;-65
2024/04/20 05:24:26;;;;;;;3.37;1.30;;;;;;;-0.22;60.90;100978.41;5438885;26;20587;-65
2024/04/20 05:26:55;;;;;;;1.63;0.90;;;;;;;-0.22;60.86;100975.81;5433290;26;20474;-65
2024/04/20 05:29:26;;;;;;;3.47;1.67;;;;;;;-0.22;61.15;100982.69;5437108;26;20533;-65
2024/04/20 05:31:55;;;;;;;2.13;1.33;;;;;;;-0.19;61.20;100990.47;5430541;26;20490;-64
2024/04/20 05:34:23;;;;;;;2.63;1.40;;;;;;;-0.17;61.31;100993.94;5434354;26;20521;-65
2024/04/20 05:36:52;;;;;;;2.73;1.40;;;;;;;-0.15;61.09;100994.84;5437052;26;21043;-65
2024/04/20 05:39:21;;;;;;;3.93;1.90;;;;;;;-0.14;61.26;100994.88;5443855;26;20546;-65
2024/04/20 05:41:49;;;;;;;2.90;1.50;;;;;;;-0.14;61.18;100997.47;5424727;26;20570;-65
2024/04/20 05:44:18;;;;;;;3.70;1.33;;;;;;;-0.12;60.98;101000.06;5438012;26;20529;-65
2024/04/20 05:46:49;;;;;;;2.47;1.57;;;;;;;-0.10;61.13;100998.41;5440526;26;20489;-65
2024/04/20 05:49:18;;;;;;;3.20;1.57;;;;;;;-0.08;61.26;101006.16;5434075;26;20593;-65
2024/04/20 05:51:46;;;;;;;1.83;1.67;;;;;;;-0.05;61.16;100998.53;5432989;26;20473;-65
2024/04/20 05:54:15;;;;;;;2.73;1.50;;;;;;;-0.05;61.50;100999.38;5439243;26;20533;-65
2024/04/20 05:56:43;;;;;;;2.33;1.27;;;;;;;-0.01;61.00;101005.47;5433099;26;20466;-65
2024/04/20 05:59:12;;;;;;;2.57;1.40;;;;;;;0.01;61.54;101014.97;5441226;26;20529;-65
2024/04/20 06:01:40;;;;;;;1.80;1.30;;;;;;;0.05;61.22;101015.91;5431730;26;20617;-71
2024/04/20 06:04:12;;;;;;;3.20;1.50;;;;;;;0.08;61.21;101011.72;5439810;26;20461;-71
2024/04/20 06:06:40;;;;;;;1.77;1.47;;;;;;;0.11;61.60;101013.47;5435799;26;20465;-71
2024/04/20 06:09:12;;;;;;;2.17;1.50;;;;;;;0.14;61.59;101016.16;5416646;26;20556;-71
2024/04/20 06:11:40;;;;;;;1.93;1.43;;;;;;;0.18;61.49;101011.94;5437193;26;20461;-70
2024/04/20 06:14:09;;;;;;;3.97;1.80;;;;;;;0.21;61.57;101023.16;5439871;26;20461;-70
2024/04/20 06:16:37;;;;;;;4.10;1.50;;;;;;;0.24;61.66;101022.38;5429084;26;20473;-70
2024/04/20 06:19:06;;;;;;;1.93;1.40;;;;;;;0.26;61.66;101025.84;5431142;26;20529;-70
2024/04/20 06:21:37;;;;;;;2.63;1.43;;;;;;;0.30;61.56;101027.66;5444796;26;20475;-65
2024/04/20 06:24:06;;;;;;;1.70;1.60;;;;;;;0.32;61.83;101028.56;5429596;26;20668;-65
2024/04/20 06:26:35;;;;;;;1.67;1.57;;;;;;;0.32;61.82;101029.44;5439261;26;20583;-65
2024/04/20 06:29:03;;;;;;;2.03;1.40;;;;;;;0.35;61.80;101029.50;5441308;26;20463;-65
2024/04/20 06:31:32;;;;;;;1.60;1.40;;;;;;;0.38;61.74;101039.00;5434458;26;20535;-65
2024/04/20 06:34:00;;;;;;;3.03;1.47;;;;;;;0.41;61.92;101039.06;5432941;26;20537;-65
2024/04/20 06:36:29;;;;;;;1.70;1.37;;;;;;;0.44;61.69;101038.25;5444100;26;20921;-65
2024/04/20 06:39:00;;;;;;;1.83;1.10;;;;;;;0.47;62.04;101038.34;5432012;26;20466;-65
2024/04/20 06:41:29;;;;;;;1.97;1.53;;;;;;;0.49;61.69;101045.25;5438610;26;20473;-65
2024/04/20 06:43:58;;;;;;;3.17;1.60;;;;;;;0.51;62.00;101045.31;5441120;26;20517;-65
2024/04/20 06:46:27;;;;;;;3.77;1.70;;;;;;;0.53;62.07;101049.63;5441037;26;20911;-65
2024/04/20 06:48:55;;;;;;;2.13;1.60;;;;;;;0.57;62.00;101048.00;5432518;26;20476;-65
2024/04/20 06:51:24;;;;;;;2.73;1.70;;;;;;;0.61;62.04;101054.09;5440930;26;20543;-65
2024/04/20 06:53:53;;;;;;;1.83;1.20;;;;;;;0.63;62.17;101057.59;5432774;26;20614;-65
2024/04/20 06:56:24;;;;;;;2.03;1.40;;;;;;;0.65;62.09;101055.88;5439336;26;20554;-65
2024/04/20 06:58:53;;;;;;;1.97;1.23;;;;;;;0.67;62.04;101057.66;5430251;26;20489;-65
2024/04/20 07:01:21;;;;;;;2.00;1.57;;;;;;;0.67;62.01;101055.09;5433459;26;20459;-65
2024/04/20 07:03:50;;;;;;;2.23;1.40;;;;;;;0.72;62.13;101060.34;5440371;26;20531;-65
2024/04/20 07:06:18;;;;;;;2.07;1.83;;;;;;;0.76;62.30;101075.03;5427311;26;20470;-65
2024/04/20 07:08:47;;;;;;;2.83;1.43;;;;;;;0.76;61.88;101060.44;5438911;26;20477;-65
2024/04/20 07:11:15;;;;;;;3.47;1.80;;;;;;;0.72;61.85;101062.94;5433172;26;20545;-68
2024/04/20 07:13:46;;;;;;;2.13;1.30;;;;;;;0.83;61.82;101066.63;5436505;26;20513;-67
2024/04/20 07:16:15;;;;;;;3.93;1.50;;;;;;;0.72;61.99;101053.50;5436373;26;20574;-67
2024/04/20 07:18:45;;;;;;;2.67;2.20;;;;;;;0.88;61.96;101075.31;5438780;26;21045;-67
2024/04/20 07:21:13;;;;;;;2.77;1.50;;;;;;;0.92;61.91;101083.97;5429113;26;20515;-67
2024/04/20 07:23:42;;;;;;;2.70;1.50;;;;;;;0.95;61.71;101081.47;5429242;26;20515;-67
2024/04/20 07:26:11;;;;;;;1.70;1.60;;;;;;;0.96;61.85;101084.09;5423493;26;20534;-67
2024/04/20 07:28:39;;;;;;;1.50;1.40;;;;;;;1.01;61.60;101086.75;5437169;26;20525;-67
2024/04/20 07:31:11;;;;;;;2.97;1.80;;;;;;;1.03;61.70;101088.53;5434621;26;20467;-67
2024/04/20 07:33:39;;;;;;;2.17;1.63;;;;;;;1.08;61.96;101085.16;5435094;26;20585;-67
2024/04/20 07:36:05;;;;;;;4.00;1.63;;;;;;;1.12;61.81;101092.13;5438082;26;20581;-67
2024/04/20 07:38:34;;;;;;;3.07;1.83;;;;;;;1.14;62.08;101101.63;5442290;26;20468;-68
2024/04/20 07:41:03;;;;;;;5.20;1.50;;;;;;;1.17;61.77;101093.09;5425537;26;20471;-69
2024/04/20 07:43:32;;;;;;;3.67;1.70;;;;;;;1.21;61.89;101105.19;5435932;26;20522;-72
2024/04/20 07:46:00;;;;;;;2.93;1.70;;;;;;;1.22;61.73;101105.25;5432619;26;21077;-72
2024/04/20 07:48:33;;;;;;;4.23;1.47;;;;;;;1.28;61.70;101101.03;5429329;26;20530;-72
2024/04/20 07:51:02;;;;;;;2.83;1.97;;;;;;;1.28;61.58;101109.66;5443017;26;20528;-79
2024/04/20 07:53:31;;;;;;;1.93;1.63;;;;;;;1.31;61.60;101121.75;5438012;26;20527;-79
2024/04/20 07:55:59;;;;;;;1.50;1.27;;;;;;;1.34;61.53;101111.50;5445860;26;20519;-80
2024/04/20 07:58:28;;;;;;;1.80;1.63;;;;;;;1.27;61.32;101104.47;5444197;26;21046;-80
2024/04/20 08:00:56;;;;;;;3.70;1.63;;;;;;;1.38;61.58;101113.28;5441764;26;20520;-78
2024/04/20 08:03:25;;;;;;;4.97;2.30;;;;;;;1.38;61.25;101121.88;5435837;26;20460;-79
2024/04/20 08:05:56;;;;;;;2.73;2.10;;;;;;;1.41;60.97;101124.53;5443737;26;20533;-79
2024/04/20 08:08:25;;;;;;;2.63;1.47;;;;;;;1.43;60.68;101133.16;5429664;26;21022;-79
2024/04/20 08:10:53;;;;;;;5.33;3.40;;;;;;;1.45;60.75;101123.75;5446607;26;21696;-78
2024/04/20 08:13:22;;;;;;;6.17;3.80;;;;;;;1.48;60.92;101133.28;5445680;26;20593;-78
2024/04/20 08:15:51;;;;;;;5.30;2.67;;;;;;;1.50;60.60;101139.31;5445011;26;20833;-78
2024/04/20 08:18:20;;;;;;;3.23;2.07;;;;;;;1.54;60.60;101145.41;5441877;26;20489;-79
2024/04/20 08:20:53;;;;;;;5.90;4.80;;;;;;;1.55;60.59;101149.72;5445130;26;20478;-78
2024/04/20 08:23:24;;;;;;;4.90;2.80;;;;;;;1.56;60.27;101148.88;5446637;26;20476;-78
2024/04/20 08:25:53;;;;;;;2.97;2.30;;;;;;;1.54;60.48;101141.13;5441979;26;20587;-78
2024/04/20 08:28:21;;;;;;;3.03;2.70;;;;;;;1.60;60.35;101153.28;5436439;26;20526;-79
2024/04/20 08:30:50;;;;;;;4.30;2.10;;;;;;;1.62;60.51;101156.78;5441202;26;20477;-78
2024/04/20 08:33:18;;;;;;;3.53;1.67;;;;;;;1.64;60.20;101160.22;5442624;26;20538;-78
2024/04/20 08:35:47;;;;;;;4.23;1.90;;;;;;;1.66;59.96;101163.72;5441430;26;20606;-78
2024/04/20 08:38:15;;;;;;;1.93;1.60;;;;;;;1.68;59.98;101174.94;5448080;26;20616;-79
2024/04/20 08:40:48;;;;;;;3.40;1.63;;;;;;;1.69;59.86;101168.94;5441891;26;20462;-79
2024/04/20 08:43:17;;;;;;;2.00;1.80;;;;;;;1.70;59.68;101174.13;5445435;26;20917;-78
2024/04/20 08:45:47;;;;;;;2.47;1.60;;;;;;;1.70;59.84;101178.41;5440671;26;20596;-79
2024/04/20 08:48:18;;;;;;;2.20;1.67;;;;;;;1.65;59.75;101175.75;5437846;26;20465;-79
2024/04/20 08:50:47;;;;;;;2.63;1.87;;;;;;;1.76;58.92;101190.53;5430276;26;20463;-78
2024/04/20 08:53:16;;;;;;;2.10;1.70;;;;;;;1.76;59.31;101187.97;5437060;26;20546;-69
2024/04/20 08:55:48;;;;;;;2.90;1.50;;;;;;;1.67;58.75;101183.50;5426396;26;20602;-69
2024/04/20 08:58:17;;;;;;;2.30;1.50;;;;;;;1.78;58.95;101192.31;5431625;26;20510;-69
2024/04/20 09:00:46;;;;;;;2.17;1.70;;;;;;;1.82;58.88;101198.44;5434022;26;20579;-68
2024/04/20 09:03:16;;;;;;;4.90;1.27;;;;;;;1.83;58.80;101211.34;5434045;26;20541;-70
2024/04/20 09:05:45;;;;;;;1.50;1.30;;;;;;;1.85;58.62;101209.69;5426696;26;21005;-70
2024/04/20 09:08:16;;;;;;;1.90;1.63;;;;;;;1.86;58.29;101205.38;5437690;26;20539;-71
2024/04/20 09:10:47;;;;;;;1.70;1.40;;;;;;;1.88;58.14;101214.91;5419384;26;21050;-70
2024/04/20 09:13:18;;;;;;;1.40;1.20;;;;;;;1.90;58.02;101217.50;5440518;26;20536;-71
2024/04/20 09:15:47;;;;;;;2.27;1.33;;;;;;;1.89;58.13;101215.75;5433220;26;20464;-70
2024/04/20 09:18:18;;;;;;;1.60;1.10;;;;;;;1.91;57.20;101225.28;5437833;26;20469;-70
2024/04/20 09:20:48;;;;;;;1.33;1.20;;;;;;;1.92;57.17;101236.47;5434073;26;20512;-70
2024/04/20 09:23:16;;;;;;;1.10;0.90;;;;;;;1.94;56.77;101237.38;5437425;26;20520;-70
2024/04/20 09:25:52;;;;;;;2.93;1.17;;;;;;;1.93;56.93;101239.09;5428613;26;20563;-70
2024/04/20 09:28:22;;;;;;;1.10;1.00;;;;;;;1.95;56.50;101252.00;5438570;26;20533;-70
2024/04/20 09:30:52;;;;;;;2.30;1.27;;;;;;;1.96;56.65;101245.13;5430358;26;20471;-70
2024/04/20 09:33:21;;;;;;;1.87;1.20;;;;;;;1.98;56.60;101264.09;5436045;26;20521;-73
2024/04/20 09:35:50;;;;;;;2.40;1.40;;;;;;;1.99;55.92;101258.09;5442272;26;21270;-73
2024/04/20 09:38:19;;;;;;;1.70;1.40;;;;;;;1.99;55.87;101274.47;5435921;26;20610;-72
2024/04/20 09:40:54;;;;;;;1.30;1.20;;;;;;;1.97;55.76;101260.66;5437972;26;20521;-73
2024/04/20 09:43:24;;;;;;;3.30;1.30;;;;;;;1.97;55.17;101270.13;5435967;26;20466;-74
2024/04/20 09:45:54;;;;;;;2.27;1.33;;;;;;;1.94;55.35;101268.34;5434324;26;20526;-73
2024/04/20 09:48:28;;;;;;;2.50;1.30;;;;;;;1.93;55.22;101270.06;5436000;26;20464;-73
2024/04/20 09:51:07;;;;;;;4.63;1.10;;;;;;;1.95;55.75;101282.09;5447322;26;20517;-73
2024/04/20 09:53:36;;;;;;;1.50;1.07;;;;;;;1.89;55.33;101272.53;5436512;26;20464;-74
2024/04/20 09:56:09;;;;;;;3.20;1.20;;;;;;;1.95;55.44;101292.44;5444841;26;20516;-73
2024/04/20 09:58:42;;;;;;;1.57;0.80;;;;;;;1.93;55.41;101282.97;5435027;26;21113;-73
2024/04/20 10:01:09;;;;;;;1.87;1.30;;;;;;;1.92;54.77;101291.53;5444116;26;20468;-75
2024/04/20 10:03:39;;;;;;;1.00;0.80;;;;;;;1.91;55.12;101289.78;5441615;26;20454;-74
2024/04/20 10:06:09;;;;;;;1.40;1.30;;;;;;;1.78;54.73;101274.00;5435308;26;20548;-73
2024/04/20 10:08:40;;;;;;;2.37;1.40;;;;;;;1.91;54.80;101301.81;5428971;26;20614;-74
2024/04/20 10:11:12;;;;;;;1.43;1.10;;;;;;;1.92;54.70;101295.81;5443067;26;20472;-68
2024/04/20 10:13:41;;;;;;;1.30;1.20;;;;;;;1.93;55.15;101306.19;5427627;26;20468;-74
2024/04/20 10:16:11;;;;;;;1.50;1.23;;;;;;;1.94;54.76;101304.47;5443410;26;21013;-73
2024/04/20 10:18:39;;;;;;;1.17;1.00;;;;;;;1.95;55.15;101313.06;5438926;26;21058;-74
2024/04/20 10:21:08;;;;;;;3.03;1.30;;;;;;;1.96;53.87;101319.97;5437878;26;20667;-73
2024/04/20 10:23:36;;;;;;;1.23;1.10;;;;;;;1.93;54.40;101316.50;5436454;26;20576;-74
2024/04/20 10:26:05;;;;;;;1.70;1.10;;;;;;;1.96;54.60;101323.44;5438723;26;20576;-73
2024/04/20 10:28:39;;;;;;;1.30;1.20;;;;;;;1.97;54.24;101330.34;5431715;26;20515;-74
2024/04/20 10:31:08;;;;;;;2.53;1.10;;;;;;;1.95;54.58;101328.56;5445862;26;20468;-74
2024/04/20 10:33:39;;;;;;;1.87;1.00;;;;;;;1.95;54.28;101334.59;5436283;26;20537;-73
2024/04/20 10:36:12;;;;;;;2.97;1.23;;;;;;;1.97;54.52;101332.06;5433179;26;20467;-74
2024/04/20 10:38:41;;;;;;;1.43;1.20;;;;;;;1.95;54.91;101346.63;5426770;26;20464;-73
2024/04/20 10:41:14;;;;;;;1.80;1.10;;;;;;;1.95;53.75;101354.38;5437324;26;20474;-67
2024/04/20 10:43:47;;;;;;;2.10;1.00;;;;;;;1.93;54.33;101351.72;5439080;26;20511;-69
2024/04/20 10:46:19;;;;;;;1.70;1.20;;;;;;;1.92;54.46;101348.28;5432854;26;20519;-70
2024/04/20 10:48:56;;;;;;;1.30;1.20;;;;;;;1.93;54.27;101352.63;5436465;26;20557;-68
2024/04/20 10:51:26;;;;;;;1.70;1.30;;;;;;;1.96;54.33;101364.75;5442366;26;20538;-69
2024/04/20 10:54:00;;;;;;;1.80;1.27;;;;;;;1.99;54.25;101363.91;5431459;26;20473;-69
2024/04/20 10:56:31;;;;;;;1.33;1.00;;;;;;;1.99;54.27;101363.91;5434927;26;20543;-69
2024/04/20 10:59:02;;;;;;;1.50;1.20;;;;;;;2.00;53.84;101379.44;5435864;26;20576;-69
2024/04/20 11:01:31;;;;;;;1.20;0.97;;;;;;;2.01;54.19;101377.72;5423551;26;20521;-70
2024/04/20 11:04:00;;;;;;;1.80;1.30;;;;;;;1.98;53.95;101378.53;5440652;26;20448;-69
2024/04/20 11:06:28;;;;;;;1.00;0.97;;;;;;;2.04;54.36;101382.94;5440840;26;20610;-69
2024/04/20 11:08:59;;;;;;;2.13;1.20;;;;;;;2.06;54.00;101396.78;5444028;26;20532;-69
2024/04/20 11:11:28;;;;;;;3.00;1.10;;;;;;;2.06;54.19;101392.47;5434220;26;20469;-69
2024/04/20 11:14:04;;;;;;;1.87;1.00;;;;;;;2.07;53.97;101396.78;5443041;26;20565;-70
2024/04/20 11:16:34;;;;;;;1.77;1.10;;;;;;;2.08;53.69;101400.25;5424013;26;20512;-69
2024/04/20 11:19:03;;;;;;;0.93;0.90;;;;;;;2.09;54.20;101412.31;5436306;26;20539;-69
2024/04/20 11:21:35;;;;;;;1.20;0.83;;;;;;;2.10;54.12;101414.06;5419098;26;20529;-74
2024/04/20 11:24:05;;;;;;;2.17;1.17;;;;;;;2.09;53.56;101409.75;5438971;26;21068;-75
2024/04/20 11:26:33;;;;;;;1.23;1.13;;;;;;;2.12;52.79;101425.28;5441965;26;20604;-75
2024/04/20 11:29:06;;;;;;;2.00;1.30;;;;;;;2.08;53.45;101416.63;5432299;26;20540;-74
2024/04/20 11:31:35;;;;;;;1.63;1.23;;;;;;;2.15;53.47;101438.28;5432753;26;21108;-75
2024/04/20 11:34:03;;;;;;;0.83;0.83;;;;;;;2.16;53.25;101432.28;5441300;26;20534;-75
2024/04/20 11:36:32;;;;;;;1.17;0.90;;;;;;;2.13;53.09;101433.09;5437322;26;20542;-74
2024/04/20 11:39:09;;;;;;;1.10;1.00;;;;;;;2.14;53.10;101439.13;5432893;26;20471;-75